createdAt,value
2023-02-07T00:01:34.997Z,81.61
2023-02-07T00:04:37.609Z,83.21
2023-02-07T00:07:40.256Z,82.84
2023-02-07T00:10:43.639Z,83.17
2023-02-07T00:13:48.474Z,82.89
2023-02-07T00:16:51.228Z,82.57
2023-02-07T00:19:53.772Z,83.66
2023-02-07T00:22:59.052Z,83.28
2023-02-07T00:26:01.975Z,83.54
2023-02-07T00:29:04.840Z,82.22
2023-02-07T00:32:07.421Z,83.26
2023-02-07T00:35:12.292Z,83.53
2023-02-07T00:38:14.966Z,82.68
2023-02-07T00:41:20.128Z,81.33
2023-02-07T00:44:22.716Z,82.26
2023-02-07T00:47:25.215Z,82.96
2023-02-07T00:50:28.281Z,82.71
2023-02-07T00:53:30.858Z,83.46
2023-02-07T00:56:34.424Z,83.91
2023-02-07T00:59:37.005Z,84.41
2023-02-07T01:02:39.507Z,84.79
2023-02-07T01:05:42.602Z,85.15
2023-02-07T01:08:45.547Z,85.45
2023-02-07T01:11:48.772Z,85.82
2023-02-07T01:14:51.323Z,85.54
2023-02-07T01:17:54.554Z,84.71
2023-02-07T01:20:57.279Z,84.60
2023-02-07T01:23:59.855Z,84.59
2023-02-07T01:27:04.176Z,83.80
2023-02-07T01:30:07.003Z,82.51
2023-02-07T01:33:10.636Z,82.68
2023-02-07T01:36:15.385Z,82.45
2023-02-07T01:39:18.306Z,82.03
2023-02-07T01:42:20.979Z,82.08
2023-02-07T01:45:29.572Z,80.61
2023-02-07T01:48:35.286Z,82.79
2023-02-07T01:51:41.802Z,83.12
2023-02-07T01:54:45.892Z,84.45
2023-02-07T01:57:49.905Z,85.27
2023-02-07T02:00:52.474Z,85.33
2023-02-07T02:03:57.858Z,85.61
2023-02-07T02:07:00.484Z,85.65
2023-02-07T02:10:19.842Z,85.56
2023-02-07T02:13:41.037Z,86.17
2023-02-07T02:16:59.433Z,86.18
2023-02-07T02:20:20.289Z,86.51
2023-02-07T02:23:40.109Z,86.56
2023-02-07T02:26:46.041Z,86.52
2023-02-07T02:30:03.856Z,86.67
2023-02-07T02:33:21.067Z,85.90
2023-02-07T02:36:36.000Z,84.84
2023-02-07T02:40:12.213Z,83.71
2023-02-07T02:43:24.506Z,82.75
2023-02-07T02:46:38.677Z,82.30
2023-02-07T02:49:42.395Z,83.46
2023-02-07T02:52:50.966Z,84.36
2023-02-07T02:56:34.725Z,85.02
2023-02-07T02:59:58.880Z,85.13
2023-02-07T03:03:15.686Z,84.46
2023-02-07T03:06:39.068Z,83.35
2023-02-07T03:10:00.014Z,83.71
2023-02-07T03:13:14.553Z,84.56
2023-02-07T03:16:27.342Z,84.80
2023-02-07T03:19:38.436Z,84.27
2023-02-07T03:22:44.169Z,85.02
2023-02-07T03:25:48.624Z,85.94
2023-02-07T03:28:52.247Z,86.63
2023-02-07T03:31:58.298Z,87.10
2023-02-07T03:35:12.921Z,87.25
2023-02-07T03:38:15.903Z,87.00
2023-02-07T03:41:29.327Z,87.28
2023-02-07T03:44:34.062Z,87.21
2023-02-07T03:47:36.806Z,87.02
2023-02-07T03:50:40.745Z,86.77
2023-02-07T03:53:43.417Z,87.00
2023-02-07T03:56:46.005Z,87.14
2023-02-07T03:59:49.583Z,86.94
2023-02-07T04:02:52.119Z,87.35
2023-02-07T04:05:55.528Z,87.14
2023-02-07T04:08:58.018Z,86.83
2023-02-07T04:12:01.423Z,86.91
2023-02-07T04:15:05.266Z,87.19
2023-02-07T04:18:07.802Z,86.96
2023-02-07T04:21:10.616Z,86.91
2023-02-07T04:24:13.175Z,86.82
2023-02-07T04:27:17.229Z,87.24
2023-02-07T04:30:19.998Z,87.37
2023-02-07T04:33:23.108Z,86.58
2023-02-07T04:36:25.676Z,86.13
2023-02-07T04:39:28.412Z,85.83
2023-02-07T04:42:31.365Z,85.50
2023-02-07T04:45:33.915Z,84.57
2023-02-07T04:48:40.364Z,84.39
2023-02-07T04:51:43.049Z,83.91
2023-02-07T04:54:46.671Z,83.81
2023-02-07T04:57:49.563Z,83.83
2023-02-07T05:00:55.374Z,83.91
2023-02-07T05:03:58.172Z,83.67
2023-02-07T05:07:01.428Z,83.44
2023-02-07T05:10:04.531Z,83.03
2023-02-07T05:13:09.206Z,82.78
2023-02-07T05:16:14.034Z,82.96
2023-02-07T05:19:18.189Z,83.35
2023-02-07T05:22:20.939Z,83.48
2023-02-07T05:25:23.806Z,83.29
2023-02-07T05:28:26.550Z,83.36
2023-02-07T05:31:47.885Z,83.63
2023-02-07T05:34:52.044Z,83.43
2023-02-07T05:37:54.738Z,83.76
2023-02-07T05:40:58.037Z,83.26
2023-02-07T05:44:00.681Z,83.13
2023-02-07T05:47:03.420Z,82.87
2023-02-07T05:50:08.002Z,82.43
2023-02-07T05:53:11.274Z,82.32
2023-02-07T05:56:14.000Z,82.46
2023-02-07T05:59:17.418Z,82.65
2023-02-07T06:02:20.148Z,82.29
2023-02-07T06:05:25.074Z,82.32
2023-02-07T06:08:27.711Z,82.76
2023-02-07T06:11:30.537Z,82.30
2023-02-07T06:14:33.278Z,82.10
2023-02-07T06:17:37.031Z,82.18
2023-02-07T06:20:39.690Z,82.08
2023-02-07T06:23:42.371Z,82.02
2023-02-07T06:26:47.320Z,82.10
2023-02-07T06:29:50.040Z,82.08
2023-02-07T06:32:54.433Z,81.68
2023-02-07T06:35:57.058Z,81.46
2023-02-07T06:39:00.354Z,81.26
2023-02-07T06:42:02.986Z,81.06
2023-02-07T06:45:06.671Z,80.67
2023-02-07T06:48:11.013Z,80.23
2023-02-07T06:51:13.774Z,79.74
2023-02-07T06:54:16.465Z,79.95
2023-02-07T06:57:19.060Z,79.77
2023-02-07T07:00:22.327Z,79.44
2023-02-07T07:03:29.720Z,79.40
2023-02-07T07:06:32.336Z,78.77
2023-02-07T07:09:35.088Z,78.61
2023-02-07T07:12:38.603Z,77.26
2023-02-07T07:15:41.439Z,76.73
2023-02-07T07:18:45.623Z,76.56
2023-02-07T07:21:48.268Z,76.67
2023-02-07T07:24:50.917Z,76.27
2023-02-07T07:27:53.940Z,75.87
2023-02-07T07:31:03.207Z,76.00
2023-02-07T07:34:05.882Z,74.83
2023-02-07T07:37:08.886Z,74.88
2023-02-07T07:40:12.204Z,74.94
2023-02-07T07:43:17.221Z,73.94
2023-02-07T07:46:22.016Z,74.09
2023-02-07T07:49:26.197Z,73.83
2023-02-07T07:52:29.012Z,73.62
2023-02-07T07:55:31.981Z,72.62
2023-02-07T07:58:34.938Z,73.21
2023-02-07T08:01:39.252Z,72.83
2023-02-07T08:04:42.161Z,71.83
2023-02-07T08:07:45.909Z,71.03
2023-02-07T08:10:49.541Z,70.91
2023-02-07T08:13:53.497Z,70.75
2023-02-07T08:16:56.433Z,69.86
2023-02-07T08:19:59.090Z,69.12
2023-02-07T08:23:02.461Z,68.97
2023-02-07T08:26:05.774Z,69.74
2023-02-07T08:29:10.027Z,70.02
2023-02-07T08:32:12.692Z,69.65
2023-02-07T08:35:16.301Z,68.55
2023-02-07T08:38:19.151Z,68.29
2023-02-07T08:41:22.616Z,68.42
2023-02-07T08:44:25.742Z,68.25
2023-02-07T08:47:28.366Z,68.07
2023-02-07T08:50:31.200Z,67.26
2023-02-07T08:53:34.396Z,66.96
2023-02-07T08:56:37.416Z,66.32
2023-02-07T08:59:40.337Z,66.84
2023-02-07T09:02:43.799Z,66.70
2023-02-07T09:05:46.574Z,66.56
2023-02-07T09:08:49.281Z,66.64
2023-02-07T09:11:53.218Z,66.24
2023-02-07T09:14:55.910Z,66.14
2023-02-07T09:17:59.353Z,65.59
2023-02-07T09:21:02.151Z,65.86
2023-02-07T09:24:04.952Z,66.05
2023-02-07T09:27:07.612Z,64.34
2023-02-07T09:30:10.687Z,64.84
2023-02-07T09:33:15.367Z,64.90
2023-02-07T09:36:20.426Z,64.47
2023-02-07T09:39:23.064Z,64.27
2023-02-07T09:42:34.071Z,64.11
2023-02-07T09:45:43.020Z,63.90
2023-02-07T09:48:55.981Z,64.00
2023-02-07T09:52:00.332Z,64.01
2023-02-07T09:55:04.914Z,64.01
2023-02-07T09:58:12.160Z,63.59
2023-02-07T10:01:16.764Z,63.87
2023-02-07T10:04:21.252Z,63.65
2023-02-07T10:07:24.073Z,63.85
2023-02-07T10:10:48.473Z,63.63
2023-02-07T10:14:07.448Z,63.80
2023-02-07T10:17:45.760Z,63.42
2023-02-07T10:21:00.400Z,63.72
2023-02-07T10:24:31.429Z,63.66
2023-02-07T10:27:42.082Z,63.22
2023-02-07T10:30:51.794Z,63.79
2023-02-07T10:34:18.123Z,64.55
2023-02-07T10:37:27.353Z,64.09
2023-02-07T10:40:29.913Z,64.06
2023-02-07T10:43:33.850Z,64.83
2023-02-07T10:46:37.899Z,64.76
2023-02-07T10:49:41.467Z,64.64
2023-02-07T10:52:55.753Z,64.53
2023-02-07T10:55:58.490Z,65.33
2023-02-07T10:59:02.638Z,64.25
2023-02-07T11:02:28.857Z,65.64
2023-02-07T11:05:52.405Z,65.24
2023-02-07T11:09:17.766Z,64.76
2023-02-07T11:12:22.711Z,64.14
2023-02-07T11:15:37.613Z,64.49
2023-02-07T11:18:45.239Z,63.53
2023-02-07T11:21:49.856Z,63.19
2023-02-07T11:24:54.013Z,63.38
2023-02-07T11:27:57.043Z,63.58
2023-02-07T11:31:12.628Z,63.38
2023-02-07T11:34:27.371Z,63.36
2023-02-07T11:37:42.204Z,62.47
2023-02-07T11:40:50.843Z,62.95
2023-02-07T11:44:11.552Z,62.95
2023-02-07T11:47:17.030Z,62.56
2023-02-07T11:50:24.356Z,63.21
2023-02-07T11:53:40.194Z,62.74
2023-02-07T11:56:45.755Z,62.32
2023-02-07T11:59:51.445Z,62.91
2023-02-07T12:03:03.639Z,62.74
2023-02-07T12:06:08.862Z,62.07
2023-02-07T12:09:36.482Z,61.54
2023-02-07T12:12:56.573Z,62.10
2023-02-07T12:16:17.392Z,61.09
2023-02-07T12:19:24.555Z,59.95
2023-02-07T12:22:35.534Z,59.70
2023-02-07T12:25:41.371Z,59.57
2023-02-07T12:29:14.876Z,60.22
2023-02-07T12:32:44.799Z,59.49
2023-02-07T12:36:10.572Z,59.50
2023-02-07T12:39:27.222Z,59.58
2023-02-07T12:42:49.674Z,59.45
2023-02-07T12:45:55.313Z,59.17
2023-02-07T12:49:01.270Z,57.90
2023-02-07T12:52:35.785Z,58.35
2023-02-07T12:56:04.814Z,59.07
2023-02-07T12:59:26.433Z,58.80
2023-02-07T13:02:35.010Z,58.12
2023-02-07T13:05:56.897Z,59.61
2023-02-07T13:09:05.941Z,59.85
2023-02-07T13:12:18.038Z,60.26
2023-02-07T13:15:36.498Z,60.78
2023-02-07T13:19:16.375Z,61.77
2023-02-07T13:22:27.011Z,61.06
2023-02-07T13:25:40.909Z,61.17
2023-02-07T13:29:03.067Z,61.18
2023-02-07T13:32:12.926Z,60.33
2023-02-07T13:35:22.582Z,60.61
2023-02-07T13:38:51.280Z,60.57
2023-02-07T13:42:00.227Z,61.74
2023-02-07T13:45:09.075Z,61.46
2023-02-07T13:48:20.857Z,61.93
2023-02-07T13:51:36.856Z,62.67
2023-02-07T13:54:43.083Z,61.98
2023-02-07T13:58:04.874Z,63.16
2023-02-07T14:01:17.568Z,62.93
2023-02-07T14:04:21.184Z,62.75
2023-02-07T14:07:32.246Z,60.88
2023-02-07T14:10:46.843Z,60.46
2023-02-07T14:13:49.504Z,60.41
2023-02-07T14:16:56.440Z,59.68
2023-02-07T14:20:00.613Z,59.71
2023-02-07T14:23:20.115Z,59.79
2023-02-07T14:26:38.152Z,59.68
2023-02-07T14:29:51.730Z,60.11
2023-02-07T14:33:17.158Z,60.23
2023-02-07T14:36:22.891Z,59.91
2023-02-07T14:39:30.212Z,59.84
2023-02-07T14:42:33.413Z,59.73
2023-02-07T14:45:37.803Z,59.56
2023-02-07T14:49:22.487Z,60.30
2023-02-07T14:52:36.450Z,59.80
2023-02-07T14:55:49.080Z,60.28
2023-02-07T14:58:54.485Z,60.42
2023-02-07T15:02:33.697Z,60.59
2023-02-07T15:05:52.629Z,61.15
2023-02-07T15:08:57.835Z,60.63
2023-02-07T15:12:12.998Z,60.54
2023-02-07T15:15:27.789Z,60.79
2023-02-07T15:18:36.855Z,61.59
2023-02-07T15:21:46.599Z,61.65
2023-02-07T15:24:51.826Z,62.22
2023-02-07T15:28:52.521Z,62.17
2023-02-07T15:31:55.805Z,63.58
2023-02-07T15:34:59.664Z,63.45
2023-02-07T15:38:24.297Z,63.33
2023-02-07T15:41:27.988Z,62.87
2023-02-07T15:44:34.430Z,62.85
2023-02-07T15:47:37.905Z,63.50
2023-02-07T15:50:41.241Z,63.35
2023-02-07T15:53:44.210Z,63.35
2023-02-07T15:56:49.955Z,63.44
2023-02-07T15:59:55.950Z,63.36
2023-02-07T16:03:01.635Z,63.24
2023-02-07T16:06:21.387Z,64.24
2023-02-07T16:09:42.266Z,64.02
2023-02-07T16:12:50.194Z,64.05
2023-02-07T16:15:59.106Z,64.38
2023-02-07T16:19:06.637Z,64.76
2023-02-07T16:22:15.425Z,64.65
2023-02-07T16:25:21.066Z,64.07
2023-02-07T16:28:23.946Z,65.24
2023-02-07T16:31:26.797Z,66.17
2023-02-07T16:34:29.555Z,66.02
2023-02-07T16:37:33.422Z,66.30
2023-02-07T16:40:36.091Z,66.53
2023-02-07T16:43:40.304Z,66.86
2023-02-07T16:46:43.445Z,67.16
2023-02-07T16:49:46.551Z,68.06
2023-02-07T16:52:51.266Z,67.80
2023-02-07T16:55:54.641Z,67.97
2023-02-07T16:58:59.817Z,68.56
2023-02-07T17:02:03.044Z,68.53
2023-02-07T17:05:06.650Z,68.68
2023-02-07T17:08:18.890Z,68.55
2023-02-07T17:11:27.294Z,68.35
2023-02-07T17:14:30.126Z,69.44
2023-02-07T17:17:33.079Z,69.52
2023-02-07T17:20:36.320Z,69.80
2023-02-07T17:23:41.703Z,69.34
2023-02-07T17:26:49.933Z,69.03
2023-02-07T17:29:52.616Z,69.85
2023-02-07T17:32:56.252Z,70.18
2023-02-07T17:35:59.721Z,70.43
2023-02-07T17:39:03.319Z,69.01
2023-02-07T17:42:06.815Z,70.46
2023-02-07T17:45:09.876Z,70.94
2023-02-07T17:48:12.970Z,70.90
2023-02-07T17:51:16.268Z,71.34
2023-02-07T17:54:19.251Z,71.35
2023-02-07T17:57:22.144Z,71.41
2023-02-07T18:00:31.311Z,70.86
2023-02-07T18:03:34.135Z,71.48
2023-02-07T18:06:37.810Z,71.87
2023-02-07T18:09:40.634Z,71.47
2023-02-07T18:12:43.601Z,72.73
2023-02-07T18:15:47.053Z,71.93
2023-02-07T18:18:55.263Z,72.05
2023-02-07T18:21:58.547Z,73.00
2023-02-07T18:25:01.485Z,72.91
2023-02-07T18:28:04.312Z,71.54
2023-02-07T18:31:24.376Z,71.77
2023-02-07T18:34:27.528Z,73.30
2023-02-07T18:37:30.596Z,72.75
2023-02-07T18:40:33.673Z,71.79
2023-02-07T18:43:38.192Z,72.32
2023-02-07T18:46:41.283Z,72.12
2023-02-07T18:49:44.851Z,72.05
2023-02-07T18:52:48.781Z,72.58
2023-02-07T18:55:51.974Z,73.29
2023-02-07T18:58:57.124Z,74.77
2023-02-07T19:02:01.224Z,74.66
2023-02-07T19:05:04.806Z,73.94
2023-02-07T19:08:08.461Z,73.95
2023-02-07T19:11:11.744Z,74.11
2023-02-07T19:14:20.254Z,74.83
2023-02-07T19:17:25.056Z,75.00
2023-02-07T19:20:28.441Z,73.91
2023-02-07T19:23:31.625Z,73.71
2023-02-07T19:26:37.932Z,74.56
2023-02-07T19:29:41.328Z,74.99
2023-02-07T19:32:44.537Z,75.40
2023-02-07T19:35:48.664Z,75.03
2023-02-07T19:38:54.500Z,74.34
2023-02-07T19:41:58.529Z,74.27
2023-02-07T19:45:03.528Z,74.32
2023-02-07T19:48:06.809Z,73.54
2023-02-07T19:51:14.399Z,73.21
2023-02-07T19:54:17.751Z,74.20
2023-02-07T19:57:21.951Z,76.37
2023-02-07T20:00:29.917Z,76.56
2023-02-07T20:03:33.507Z,76.98
2023-02-07T20:06:37.402Z,76.71
2023-02-07T20:09:41.660Z,78.18
2023-02-07T20:12:44.989Z,78.26
2023-02-07T20:15:48.328Z,78.67
2023-02-07T20:18:52.723Z,78.18
2023-02-07T20:21:55.600Z,77.63
2023-02-07T20:24:58.416Z,78.15
2023-02-07T20:28:01.361Z,77.94
2023-02-07T20:31:11.999Z,75.33
2023-02-07T20:34:16.189Z,77.19
2023-02-07T20:37:19.177Z,77.48
2023-02-07T20:40:26.297Z,78.15
2023-02-07T20:43:32.823Z,78.52
2023-02-07T20:46:36.892Z,78.59
2023-02-07T20:49:39.959Z,78.59
2023-02-07T20:52:43.400Z,78.22
2023-02-07T20:55:47.133Z,76.68
2023-02-07T20:58:50.023Z,77.26
2023-02-07T21:01:54.028Z,77.94
2023-02-07T21:04:56.841Z,78.32
2023-02-07T21:08:00.540Z,78.87
2023-02-07T21:11:04.374Z,79.19
2023-02-07T21:14:20.674Z,78.73
2023-02-07T21:17:23.409Z,78.77
2023-02-07T21:20:27.007Z,79.18
2023-02-07T21:23:29.920Z,78.93
2023-02-07T21:26:33.018Z,79.15
2023-02-07T21:29:36.703Z,79.02
2023-02-07T21:32:39.569Z,77.88
2023-02-07T21:35:42.279Z,77.62
2023-02-07T21:38:47.916Z,78.08
2023-02-07T21:41:50.761Z,78.40
2023-02-07T21:44:53.463Z,75.51
2023-02-07T21:47:56.259Z,78.75
2023-02-07T21:51:04.257Z,79.93
2023-02-07T21:54:09.705Z,78.80
2023-02-07T21:57:12.330Z,79.54
2023-02-07T22:00:15.684Z,80.56
2023-02-07T22:03:18.327Z,79.11
2023-02-07T22:06:22.829Z,79.02
2023-02-07T22:09:25.536Z,78.13
2023-02-07T22:12:28.981Z,77.11
2023-02-07T22:15:33.345Z,80.47
2023-02-07T22:18:36.774Z,80.45
2023-02-07T22:21:40.464Z,80.14
2023-02-07T22:24:43.306Z,80.60
2023-02-07T22:27:45.989Z,80.79
2023-02-07T22:30:50.223Z,80.02
2023-02-07T22:33:54.679Z,80.26
2023-02-07T22:36:57.358Z,81.25
2023-02-07T22:39:59.939Z,82.11
2023-02-07T22:43:03.473Z,81.72
2023-02-07T22:46:08.090Z,81.93
2023-02-07T22:49:10.998Z,81.35
2023-02-07T22:52:13.562Z,81.16
2023-02-07T22:55:16.286Z,80.69
2023-02-07T22:58:18.918Z,81.99
2023-02-07T23:01:23.149Z,82.11
2023-02-07T23:04:25.888Z,82.42
2023-02-07T23:07:28.637Z,82.05
2023-02-07T23:10:31.584Z,82.08
2023-02-07T23:13:34.499Z,82.43
2023-02-07T23:16:37.113Z,81.93
2023-02-07T23:19:39.713Z,81.88
2023-02-07T23:22:42.349Z,82.00
2023-02-07T23:25:45.810Z,82.55
2023-02-07T23:28:48.951Z,81.76
2023-02-07T23:31:51.771Z,82.33
2023-02-07T23:34:54.305Z,82.51
2023-02-07T23:37:56.915Z,82.36
2023-02-07T23:40:59.638Z,82.60
2023-02-07T23:44:02.778Z,82.37
2023-02-07T23:47:05.687Z,81.53
2023-02-07T23:50:08.666Z,79.86
2023-02-07T23:53:11.327Z,79.51
2023-02-07T23:56:16.579Z,80.25
2023-02-07T23:59:19.240Z,79.37
